sensor_id;sensor_type;location;lat;lon;timestamp;temperature;humidity
9049;DHT22;4559;47.252;9.592;2022-09-03T00:02:39;17.80;99.90
9049;DHT22;4559;47.252;9.592;2022-09-03T00:08:27;17.70;99.90
9049;DHT22;4559;47.252;9.592;2022-09-03T00:11:00;17.70;99.90
9049;DHT22;4559;47.252;9.592;2022-09-03T00:13:34;17.70;99.90
9049;DHT22;4559;47.252;9.592;2022-09-03T00:16:04;17.70;99.90
9049;DHT22;4559;47.252;9.592;2022-09-03T00:18:36;17.60;99.90
9049;DHT22;4559;47.252;9.592;2022-09-03T00:21:10;17.60;99.90
9049;DHT22;4559;47.252;9.592;2022-09-03T00:23:41;17.50;99.90
9049;DHT22;4559;47.252;9.592;2022-09-03T00:29:02;17.50;99.90
9049;DHT22;4559;47.252;9.592;2022-09-03T00:31:33;17.50;99.90
9049;DHT22;4559;47.252;9.592;2022-09-03T00:34:06;17.40;99.90
9049;DHT22;4559;47.252;9.592;2022-09-03T00:36:41;17.40;99.90
9049;DHT22;4559;47.252;9.592;2022-09-03T00:39:13;17.40;99.90
9049;DHT22;4559;47.252;9.592;2022-09-03T00:50:03;17.40;99.90
9049;DHT22;4559;47.252;9.592;2022-09-03T01:01:39;17.50;99.90
9049;DHT22;4559;47.252;9.592;2022-09-03T01:09:46;17.40;99.90
9049;DHT22;4559;47.252;9.592;2022-09-03T01:15:27;17.50;99.90
9049;DHT22;4559;47.252;9.592;2022-09-03T01:29:13;17.40;99.90
9049;DHT22;4559;47.252;9.592;2022-09-03T01:32:02;17.40;99.90
9049;DHT22;4559;47.252;9.592;2022-09-03T01:43:02;17.40;99.90
9049;DHT22;4559;47.252;9.592;2022-09-03T01:48:45;17.20;99.90
9049;DHT22;4559;47.252;9.592;2022-09-03T01:59:39;17.10;99.90
9049;DHT22;4559;47.252;9.592;2022-09-03T02:02:16;17.00;99.90
9049;DHT22;4559;47.252;9.592;2022-09-03T02:05:04;17.00;99.90
9049;DHT22;4559;47.252;9.592;2022-09-03T02:07:36;17.00;99.90
9049;DHT22;4559;47.252;9.592;2022-09-03T02:10:06;16.90;99.90
9049;DHT22;4559;47.252;9.592;2022-09-03T02:12:34;16.90;99.90
9049;DHT22;4559;47.252;9.592;2022-09-03T02:15:04;16.90;99.90
9049;DHT22;4559;47.252;9.592;2022-09-03T02:17:31;16.90;99.90
9049;DHT22;4559;47.252;9.592;2022-09-03T02:19:58;16.90;99.90
9049;DHT22;4559;47.252;9.592;2022-09-03T02:22:27;16.90;99.90
9049;DHT22;4559;47.252;9.592;2022-09-03T02:24:53;16.90;99.90
9049;DHT22;4559;47.252;9.592;2022-09-03T02:27:19;16.90;99.90
9049;DHT22;4559;47.252;9.592;2022-09-03T02:29:45;16.80;99.90
9049;DHT22;4559;47.252;9.592;2022-09-03T02:32:11;16.70;99.90
9049;DHT22;4559;47.252;9.592;2022-09-03T02:34:40;16.70;99.90
9049;DHT22;4559;47.252;9.592;2022-09-03T02:37:17;16.80;99.90
9049;DHT22;4559;47.252;9.592;2022-09-03T02:39:44;16.90;99.90
9049;DHT22;4559;47.252;9.592;2022-09-03T02:42:12;16.80;99.90
9049;DHT22;4559;47.252;9.592;2022-09-03T02:47:33;16.80;99.90
9049;DHT22;4559;47.252;9.592;2022-09-03T02:50:00;16.80;99.90
9049;DHT22;4559;47.252;9.592;2022-09-03T02:52:25;16.90;99.90
9049;DHT22;4559;47.252;9.592;2022-09-03T02:54:51;16.90;99.90
9049;DHT22;4559;47.252;9.592;2022-09-03T02:57:17;16.90;99.90
9049;DHT22;4559;47.252;9.592;2022-09-03T02:59:42;16.90;99.90
9049;DHT22;4559;47.252;9.592;2022-09-03T03:02:12;16.90;99.90
9049;DHT22;4559;47.252;9.592;2022-09-03T03:04:38;16.90;99.90
9049;DHT22;4559;47.252;9.592;2022-09-03T03:07:05;16.80;99.90
9049;DHT22;4559;47.252;9.592;2022-09-03T03:09:31;16.80;99.90
9049;DHT22;4559;47.252;9.592;2022-09-03T03:11:56;16.80;99.90
9049;DHT22;4559;47.252;9.592;2022-09-03T03:14:22;16.80;99.90
9049;DHT22;4559;47.252;9.592;2022-09-03T03:16:49;16.80;99.90
9049;DHT22;4559;47.252;9.592;2022-09-03T03:19:15;16.80;99.90
9049;DHT22;4559;47.252;9.592;2022-09-03T03:21:41;16.90;99.90
9049;DHT22;4559;47.252;9.592;2022-09-03T03:24:06;16.90;99.90
9049;DHT22;4559;47.252;9.592;2022-09-03T03:26:32;16.80;99.90
9049;DHT22;4559;47.252;9.592;2022-09-03T03:28:59;16.90;99.90
9049;DHT22;4559;47.252;9.592;2022-09-03T03:31:26;16.90;99.90
9049;DHT22;4559;47.252;9.592;2022-09-03T03:33:53;16.90;99.90
9049;DHT22;4559;47.252;9.592;2022-09-03T03:36:21;16.90;99.90
9049;DHT22;4559;47.252;9.592;2022-09-03T03:38:47;16.90;99.90
9049;DHT22;4559;47.252;9.592;2022-09-03T03:41:22;16.90;99.90
9049;DHT22;4559;47.252;9.592;2022-09-03T03:43:52;16.90;99.90
9049;DHT22;4559;47.252;9.592;2022-09-03T03:46:19;16.90;99.90
9049;DHT22;4559;47.252;9.592;2022-09-03T03:48:50;16.90;99.90
9049;DHT22;4559;47.252;9.592;2022-09-03T03:51:16;16.90;99.90
9049;DHT22;4559;47.252;9.592;2022-09-03T03:53:43;17.00;99.90
9049;DHT22;4559;47.252;9.592;2022-09-03T03:56:11;17.00;99.90
9049;DHT22;4559;47.252;9.592;2022-09-03T03:58:38;17.00;99.90
9049;DHT22;4559;47.252;9.592;2022-09-03T04:01:09;17.00;99.90
9049;DHT22;4559;47.252;9.592;2022-09-03T04:03:35;17.00;99.90
9049;DHT22;4559;47.252;9.592;2022-09-03T04:06:02;17.00;99.90
9049;DHT22;4559;47.252;9.592;2022-09-03T04:08:29;17.00;99.90
9049;DHT22;4559;47.252;9.592;2022-09-03T04:10:59;16.90;99.90
9049;DHT22;4559;47.252;9.592;2022-09-03T04:13:30;16.90;99.90
9049;DHT22;4559;47.252;9.592;2022-09-03T04:16:10;17.00;99.90
9049;DHT22;4559;47.252;9.592;2022-09-03T04:18:37;17.00;99.90
9049;DHT22;4559;47.252;9.592;2022-09-03T04:21:05;16.90;99.90
9049;DHT22;4559;47.252;9.592;2022-09-03T04:23:32;16.90;99.90
9049;DHT22;4559;47.252;9.592;2022-09-03T04:25:59;16.90;99.90
9049;DHT22;4559;47.252;9.592;2022-09-03T04:28:25;16.90;99.90
9049;DHT22;4559;47.252;9.592;2022-09-03T04:30:50;16.90;99.90
9049;DHT22;4559;47.252;9.592;2022-09-03T04:33:16;16.90;99.90
9049;DHT22;4559;47.252;9.592;2022-09-03T04:35:42;16.90;99.90
9049;DHT22;4559;47.252;9.592;2022-09-03T04:38:08;16.90;99.90
9049;DHT22;4559;47.252;9.592;2022-09-03T04:40:34;16.90;99.90
9049;DHT22;4559;47.252;9.592;2022-09-03T04:43:00;16.90;99.90
9049;DHT22;4559;47.252;9.592;2022-09-03T04:45:26;16.80;99.90
9049;DHT22;4559;47.252;9.592;2022-09-03T04:48:00;16.80;99.90
9049;DHT22;4559;47.252;9.592;2022-09-03T04:50:27;16.80;99.90
9049;DHT22;4559;47.252;9.592;2022-09-03T04:53:04;16.80;99.90
9049;DHT22;4559;47.252;9.592;2022-09-03T04:55:34;16.80;99.90
9049;DHT22;4559;47.252;9.592;2022-09-03T04:58:00;16.80;99.90
9049;DHT22;4559;47.252;9.592;2022-09-03T05:00:25;16.80;99.90
9049;DHT22;4559;47.252;9.592;2022-09-03T05:02:51;16.70;99.90
9049;DHT22;4559;47.252;9.592;2022-09-03T05:05:17;16.70;99.90
9049;DHT22;4559;47.252;9.592;2022-09-03T05:07:43;16.70;99.90
9049;DHT22;4559;47.252;9.592;2022-09-03T05:10:11;16.80;99.90
9049;DHT22;4559;47.252;9.592;2022-09-03T05:12:37;16.80;99.90
9049;DHT22;4559;47.252;9.592;2022-09-03T05:15:04;16.80;99.90
9049;DHT22;4559;47.252;9.592;2022-09-03T05:17:30;16.80;99.90
9049;DHT22;4559;47.252;9.592;2022-09-03T05:19:56;16.80;99.90
9049;DHT22;4559;47.252;9.592;2022-09-03T05:22:22;16.90;99.90
9049;DHT22;4559;47.252;9.592;2022-09-03T05:24:48;16.90;99.90
9049;DHT22;4559;47.252;9.592;2022-09-03T05:27:14;16.90;99.90
9049;DHT22;4559;47.252;9.592;2022-09-03T05:29:44;16.90;99.90
9049;DHT22;4559;47.252;9.592;2022-09-03T05:32:10;17.00;99.90
9049;DHT22;4559;47.252;9.592;2022-09-03T05:34:38;17.00;99.90
9049;DHT22;4559;47.252;9.592;2022-09-03T05:37:03;17.00;99.90
9049;DHT22;4559;47.252;9.592;2022-09-03T05:39:29;17.00;99.90
9049;DHT22;4559;47.252;9.592;2022-09-03T05:41:55;17.00;99.90
9049;DHT22;4559;47.252;9.592;2022-09-03T05:44:20;17.00;99.90
9049;DHT22;4559;47.252;9.592;2022-09-03T05:46:47;17.00;99.90
9049;DHT22;4559;47.252;9.592;2022-09-03T05:49:14;17.00;99.90
9049;DHT22;4559;47.252;9.592;2022-09-03T05:51:40;17.00;99.90
9049;DHT22;4559;47.252;9.592;2022-09-03T05:54:07;17.10;99.90
9049;DHT22;4559;47.252;9.592;2022-09-03T05:56:34;17.10;99.90
9049;DHT22;4559;47.252;9.592;2022-09-03T05:59:02;17.20;99.90
9049;DHT22;4559;47.252;9.592;2022-09-03T06:01:34;17.20;99.90
9049;DHT22;4559;47.252;9.592;2022-09-03T06:04:05;17.10;99.90
9049;DHT22;4559;47.252;9.592;2022-09-03T06:06:33;17.20;99.90
9049;DHT22;4559;47.252;9.592;2022-09-03T06:09:02;17.20;99.90
9049;DHT22;4559;47.252;9.592;2022-09-03T06:11:29;17.30;99.90
9049;DHT22;4559;47.252;9.592;2022-09-03T06:13:57;17.40;99.90
9049;DHT22;4559;47.252;9.592;2022-09-03T06:16:24;17.50;99.90
9049;DHT22;4559;47.252;9.592;2022-09-03T06:18:50;17.60;99.90
9049;DHT22;4559;47.252;9.592;2022-09-03T06:21:16;17.70;99.90
9049;DHT22;4559;47.252;9.592;2022-09-03T06:23:41;17.90;99.90
9049;DHT22;4559;47.252;9.592;2022-09-03T06:26:10;18.00;99.90
9049;DHT22;4559;47.252;9.592;2022-09-03T06:28:37;18.00;99.90
9049;DHT22;4559;47.252;9.592;2022-09-03T06:31:06;18.10;99.90
9049;DHT22;4559;47.252;9.592;2022-09-03T06:33:33;18.10;99.90
9049;DHT22;4559;47.252;9.592;2022-09-03T06:36:00;18.10;99.90
9049;DHT22;4559;47.252;9.592;2022-09-03T06:38:29;18.20;99.90
9049;DHT22;4559;47.252;9.592;2022-09-03T06:40:58;18.30;99.90
9049;DHT22;4559;47.252;9.592;2022-09-03T06:43:27;18.50;99.90
9049;DHT22;4559;47.252;9.592;2022-09-03T06:46:00;18.60;99.90
9049;DHT22;4559;47.252;9.592;2022-09-03T06:48:27;18.70;99.90
9049;DHT22;4559;47.252;9.592;2022-09-03T06:50:58;18.80;99.90
9049;DHT22;4559;47.252;9.592;2022-09-03T06:53:25;18.90;99.90
9049;DHT22;4559;47.252;9.592;2022-09-03T06:56:11;19.10;99.90
9049;DHT22;4559;47.252;9.592;2022-09-03T06:58:39;19.30;99.90
9049;DHT22;4559;47.252;9.592;2022-09-03T07:01:13;19.40;99.90
9049;DHT22;4559;47.252;9.592;2022-09-03T07:03:41;19.50;99.90
9049;DHT22;4559;47.252;9.592;2022-09-03T07:06:12;19.60;99.90
9049;DHT22;4559;47.252;9.592;2022-09-03T07:08:38;19.70;99.90
9049;DHT22;4559;47.252;9.592;2022-09-03T07:11:10;19.80;99.90
9049;DHT22;4559;47.252;9.592;2022-09-03T07:13:37;19.80;99.90
9049;DHT22;4559;47.252;9.592;2022-09-03T07:16:07;19.90;99.90
9049;DHT22;4559;47.252;9.592;2022-09-03T07:18:33;20.00;99.90
9049;DHT22;4559;47.252;9.592;2022-09-03T07:21:00;20.00;99.90
9049;DHT22;4559;47.252;9.592;2022-09-03T07:23:27;20.00;99.90
9049;DHT22;4559;47.252;9.592;2022-09-03T07:26:02;20.00;99.90
9049;DHT22;4559;47.252;9.592;2022-09-03T07:28:28;20.00;99.90
9049;DHT22;4559;47.252;9.592;2022-09-03T07:31:09;20.10;99.90
9049;DHT22;4559;47.252;9.592;2022-09-03T07:33:40;20.10;99.90
9049;DHT22;4559;47.252;9.592;2022-09-03T07:36:08;20.10;99.90
9049;DHT22;4559;47.252;9.592;2022-09-03T07:38:35;20.10;99.90
9049;DHT22;4559;47.252;9.592;2022-09-03T07:41:04;20.10;99.90
9049;DHT22;4559;47.252;9.592;2022-09-03T07:43:34;20.10;99.90
9049;DHT22;4559;47.252;9.592;2022-09-03T07:46:00;20.10;99.90
9049;DHT22;4559;47.252;9.592;2022-09-03T07:48:27;20.10;99.90
9049;DHT22;4559;47.252;9.592;2022-09-03T07:50:57;20.10;99.90
9049;DHT22;4559;47.252;9.592;2022-09-03T07:53:25;20.10;99.90
9049;DHT22;4559;47.252;9.592;2022-09-03T07:55:51;20.20;99.90
9049;DHT22;4559;47.252;9.592;2022-09-03T07:58:17;20.30;99.90
9049;DHT22;4559;47.252;9.592;2022-09-03T08:00:42;20.50;99.90
9049;DHT22;4559;47.252;9.592;2022-09-03T08:03:08;20.60;99.90
9049;DHT22;4559;47.252;9.592;2022-09-03T08:05:35;20.80;99.90
9049;DHT22;4559;47.252;9.592;2022-09-03T08:08:03;20.90;99.90
9049;DHT22;4559;47.252;9.592;2022-09-03T08:10:29;21.20;99.90
9049;DHT22;4559;47.252;9.592;2022-09-03T08:12:56;21.30;99.90
9049;DHT22;4559;47.252;9.592;2022-09-03T08:15:22;21.50;99.90
9049;DHT22;4559;47.252;9.592;2022-09-03T08:17:47;21.70;99.90
9049;DHT22;4559;47.252;9.592;2022-09-03T08:20:14;22.00;99.90
9049;DHT22;4559;47.252;9.592;2022-09-03T08:22:40;22.20;99.90
9049;DHT22;4559;47.252;9.592;2022-09-03T08:25:06;22.40;99.90
9049;DHT22;4559;47.252;9.592;2022-09-03T08:27:32;22.50;99.90
9049;DHT22;4559;47.252;9.592;2022-09-03T08:29:58;22.70;99.90
9049;DHT22;4559;47.252;9.592;2022-09-03T08:32:23;22.90;99.90
9049;DHT22;4559;47.252;9.592;2022-09-03T08:34:49;23.10;99.90
9049;DHT22;4559;47.252;9.592;2022-09-03T08:37:16;23.20;99.90
9049;DHT22;4559;47.252;9.592;2022-09-03T08:39:43;23.40;99.80
9049;DHT22;4559;47.252;9.592;2022-09-03T08:45:00;23.60;99.40
9049;DHT22;4559;47.252;9.592;2022-09-03T08:50:31;23.90;99.20
9049;DHT22;4559;47.252;9.592;2022-09-03T08:55:42;24.20;99.10
9049;DHT22;4559;47.252;9.592;2022-09-03T08:58:19;24.50;98.20
9049;DHT22;4559;47.252;9.592;2022-09-03T09:06:45;25.20;97.30
9049;DHT22;4559;47.252;9.592;2022-09-03T09:09:32;25.30;97.90
9049;DHT22;4559;47.252;9.592;2022-09-03T09:12:12;25.50;96.60
9049;DHT22;4559;47.252;9.592;2022-09-03T09:17:27;25.80;95.80
9049;DHT22;4559;47.252;9.592;2022-09-03T09:22:48;26.20;94.70
9049;DHT22;4559;47.252;9.592;2022-09-03T09:25:21;26.40;94.40
9049;DHT22;4559;47.252;9.592;2022-09-03T09:28:01;26.50;94.70
9049;DHT22;4559;47.252;9.592;2022-09-03T09:30:29;26.60;93.40
9049;DHT22;4559;47.252;9.592;2022-09-03T09:32:55;26.70;93.30
9049;DHT22;4559;47.252;9.592;2022-09-03T09:35:21;26.60;92.00
9049;DHT22;4559;47.252;9.592;2022-09-03T09:37:58;26.60;92.50
9049;DHT22;4559;47.252;9.592;2022-09-03T09:40:33;26.70;93.00
9049;DHT22;4559;47.252;9.592;2022-09-03T09:43:18;26.80;92.40
9049;DHT22;4559;47.252;9.592;2022-09-03T09:45:48;27.00;91.70
9049;DHT22;4559;47.252;9.592;2022-09-03T09:48:38;27.10;91.60
9049;DHT22;4559;47.252;9.592;2022-09-03T09:51:12;27.20;91.10
9049;DHT22;4559;47.252;9.592;2022-09-03T09:53:39;27.30;90.50
9049;DHT22;4559;47.252;9.592;2022-09-03T09:56:05;27.60;90.30
9049;DHT22;4559;47.252;9.592;2022-09-03T09:58:33;27.80;89.50
9049;DHT22;4559;47.252;9.592;2022-09-03T10:01:14;28.00;90.00
9049;DHT22;4559;47.252;9.592;2022-09-03T10:03:55;28.20;87.50
9049;DHT22;4559;47.252;9.592;2022-09-03T10:06:27;28.40;86.90
9049;DHT22;4559;47.252;9.592;2022-09-03T10:09:20;28.50;85.00
9049;DHT22;4559;47.252;9.592;2022-09-03T10:14:38;28.60;83.40
9049;DHT22;4559;47.252;9.592;2022-09-03T10:23:00;28.20;80.70
9049;DHT22;4559;47.252;9.592;2022-09-03T10:28:04;27.80;80.10
9049;DHT22;4559;47.252;9.592;2022-09-03T10:33:26;27.50;82.90
9049;DHT22;4559;47.252;9.592;2022-09-03T10:38:34;27.40;84.20
9049;DHT22;4559;47.252;9.592;2022-09-03T10:41:18;27.20;84.80
9049;DHT22;4559;47.252;9.592;2022-09-03T10:46:27;26.90;86.90
9049;DHT22;4559;47.252;9.592;2022-09-03T10:51:36;26.60;88.00
9049;DHT22;4559;47.252;9.592;2022-09-03T10:57:08;26.20;87.00
9049;DHT22;4559;47.252;9.592;2022-09-03T11:00:03;26.00;86.60
9049;DHT22;4559;47.252;9.592;2022-09-03T11:10:33;25.70;87.70
9049;DHT22;4559;47.252;9.592;2022-09-03T11:21:00;25.30;90.40
9049;DHT22;4559;47.252;9.592;2022-09-03T11:23:32;25.30;89.60
9049;DHT22;4559;47.252;9.592;2022-09-03T11:26:04;25.20;89.40
9049;DHT22;4559;47.252;9.592;2022-09-03T11:31:12;24.90;90.40
9049;DHT22;4559;47.252;9.592;2022-09-03T11:33:46;24.60;91.10
9049;DHT22;4559;47.252;9.592;2022-09-03T11:36:32;24.40;90.20
9049;DHT22;4559;47.252;9.592;2022-09-03T11:38:59;24.00;90.00
9049;DHT22;4559;47.252;9.592;2022-09-03T11:41:33;23.60;90.00
9049;DHT22;4559;47.252;9.592;2022-09-03T11:44:17;23.20;90.80
9049;DHT22;4559;47.252;9.592;2022-09-03T11:46:53;23.10;90.70
9049;DHT22;4559;47.252;9.592;2022-09-03T11:49:31;22.90;90.40
9049;DHT22;4559;47.252;9.592;2022-09-03T11:52:03;22.60;91.00
9049;DHT22;4559;47.252;9.592;2022-09-03T11:54:42;22.30;92.10
9049;DHT22;4559;47.252;9.592;2022-09-03T11:57:14;22.00;93.30
9049;DHT22;4559;47.252;9.592;2022-09-03T11:59:42;21.80;94.60
9049;DHT22;4559;47.252;9.592;2022-09-03T12:02:28;21.60;96.50
9049;DHT22;4559;47.252;9.592;2022-09-03T12:13:00;20.50;99.90
9049;DHT22;4559;47.252;9.592;2022-09-03T12:18:07;20.30;99.90
9049;DHT22;4559;47.252;9.592;2022-09-03T12:21:09;20.20;99.90
9049;DHT22;4559;47.252;9.592;2022-09-03T12:23:45;20.20;99.90
9049;DHT22;4559;47.252;9.592;2022-09-03T12:26:20;20.00;99.90
9049;DHT22;4559;47.252;9.592;2022-09-03T12:28:50;19.90;99.90
9049;DHT22;4559;47.252;9.592;2022-09-03T12:31:20;19.80;99.90
9049;DHT22;4559;47.252;9.592;2022-09-03T12:33:51;19.60;99.90
9049;DHT22;4559;47.252;9.592;2022-09-03T12:36:20;19.40;99.90
9049;DHT22;4559;47.252;9.592;2022-09-03T12:38:46;19.40;99.90
9049;DHT22;4559;47.252;9.592;2022-09-03T12:41:29;19.50;99.90
9049;DHT22;4559;47.252;9.592;2022-09-03T12:43:57;19.70;99.90
9049;DHT22;4559;47.252;9.592;2022-09-03T12:46:29;19.90;99.90
9049;DHT22;4559;47.252;9.592;2022-09-03T12:48:57;20.70;99.90
9049;DHT22;4559;47.252;9.592;2022-09-03T12:51:39;21.70;99.90
9049;DHT22;4559;47.252;9.592;2022-09-03T12:54:07;22.60;99.90
9049;DHT22;4559;47.252;9.592;2022-09-03T12:56:38;23.00;99.90
9049;DHT22;4559;47.252;9.592;2022-09-03T12:59:09;23.10;99.90
9049;DHT22;4559;47.252;9.592;2022-09-03T13:01:52;22.90;99.90
9049;DHT22;4559;47.252;9.592;2022-09-03T13:04:32;22.60;99.90
9049;DHT22;4559;47.252;9.592;2022-09-03T13:07:05;22.30;99.90
9049;DHT22;4559;47.252;9.592;2022-09-03T13:09:35;22.30;99.90
9049;DHT22;4559;47.252;9.592;2022-09-03T13:12:02;22.30;99.90
9049;DHT22;4559;47.252;9.592;2022-09-03T13:14:45;22.30;99.90
9049;DHT22;4559;47.252;9.592;2022-09-03T13:25:15;22.90;99.90
9049;DHT22;4559;47.252;9.592;2022-09-03T13:30:40;23.00;99.90
9049;DHT22;4559;47.252;9.592;2022-09-03T13:33:27;23.00;99.90
9049;DHT22;4559;47.252;9.592;2022-09-03T13:36:15;22.90;99.90
9049;DHT22;4559;47.252;9.592;2022-09-03T13:38:43;22.90;99.90
9049;DHT22;4559;47.252;9.592;2022-09-03T13:41:17;23.00;99.90
9049;DHT22;4559;47.252;9.592;2022-09-03T13:44:05;23.10;99.90
9049;DHT22;4559;47.252;9.592;2022-09-03T13:46:50;22.90;99.90
9049;DHT22;4559;47.252;9.592;2022-09-03T13:49:50;22.90;99.90
9049;DHT22;4559;47.252;9.592;2022-09-03T13:52:45;22.90;99.90
9049;DHT22;4559;47.252;9.592;2022-09-03T13:55:20;22.80;99.90
9049;DHT22;4559;47.252;9.592;2022-09-03T13:58:18;22.80;99.90
9049;DHT22;4559;47.252;9.592;2022-09-03T14:00:53;22.80;99.90
9049;DHT22;4559;47.252;9.592;2022-09-03T14:03:35;22.80;99.90
9049;DHT22;4559;47.252;9.592;2022-09-03T14:06:08;22.60;99.90
9049;DHT22;4559;47.252;9.592;2022-09-03T14:11:39;22.50;99.90
9049;DHT22;4559;47.252;9.592;2022-09-03T14:14:22;22.40;99.90
9049;DHT22;4559;47.252;9.592;2022-09-03T14:17:01;22.30;99.90
9049;DHT22;4559;47.252;9.592;2022-09-03T14:20:02;22.10;99.90
9049;DHT22;4559;47.252;9.592;2022-09-03T14:25:24;22.10;99.90
9049;DHT22;4559;47.252;9.592;2022-09-03T14:27:51;22.00;99.90
9049;DHT22;4559;47.252;9.592;2022-09-03T14:30:41;22.00;99.90
9049;DHT22;4559;47.252;9.592;2022-09-03T14:33:18;22.00;99.90
9049;DHT22;4559;47.252;9.592;2022-09-03T14:36:10;22.00;99.90
9049;DHT22;4559;47.252;9.592;2022-09-03T14:44:34;22.10;99.90
9049;DHT22;4559;47.252;9.592;2022-09-03T14:47:09;22.00;99.90
9049;DHT22;4559;47.252;9.592;2022-09-03T15:00:56;22.00;99.90
9049;DHT22;4559;47.252;9.592;2022-09-03T15:12:42;22.30;99.90
9049;DHT22;4559;47.252;9.592;2022-09-03T15:18:12;22.50;99.90
9049;DHT22;4559;47.252;9.592;2022-09-03T15:20:51;22.60;99.90
9049;DHT22;4559;47.252;9.592;2022-09-03T15:23:47;22.60;99.90
9049;DHT22;4559;47.252;9.592;2022-09-03T15:26:24;22.60;99.90
9049;DHT22;4559;47.252;9.592;2022-09-03T15:29:20;22.60;99.90
9049;DHT22;4559;47.252;9.592;2022-09-03T15:32:01;22.70;99.90
9049;DHT22;4559;47.252;9.592;2022-09-03T15:35:03;22.70;99.90
9049;DHT22;4559;47.252;9.592;2022-09-03T15:37:53;22.70;99.90
9049;DHT22;4559;47.252;9.592;2022-09-03T15:43:26;22.60;99.90
9049;DHT22;4559;47.252;9.592;2022-09-03T15:46:02;22.60;99.90
9049;DHT22;4559;47.252;9.592;2022-09-03T15:59:46;22.70;99.90
9049;DHT22;4559;47.252;9.592;2022-09-03T16:02:30;22.70;99.90
9049;DHT22;4559;47.252;9.592;2022-09-03T16:08:07;22.70;99.90
9049;DHT22;4559;47.252;9.592;2022-09-03T16:19:22;22.50;99.90
9049;DHT22;4559;47.252;9.592;2022-09-03T16:28:09;22.20;99.90
9049;DHT22;4559;47.252;9.592;2022-09-03T16:33:37;22.10;99.90
9049;DHT22;4559;47.252;9.592;2022-09-03T16:41:26;21.90;99.90
9049;DHT22;4559;47.252;9.592;2022-09-03T16:46:35;21.70;99.90
9049;DHT22;4559;47.252;9.592;2022-09-03T16:49:22;21.70;99.90
9049;DHT22;4559;47.252;9.592;2022-09-03T16:52:19;21.60;99.90
9049;DHT22;4559;47.252;9.592;2022-09-03T16:55:23;21.60;99.90
9049;DHT22;4559;47.252;9.592;2022-09-03T17:00:34;21.60;99.90
9049;DHT22;4559;47.252;9.592;2022-09-03T17:06:12;21.40;99.90
9049;DHT22;4559;47.252;9.592;2022-09-03T17:11:47;21.30;99.90
9049;DHT22;4559;47.252;9.592;2022-09-03T17:19:56;21.10;99.90
9049;DHT22;4559;47.252;9.592;2022-09-03T17:24:57;21.00;99.90
9049;DHT22;4559;47.252;9.592;2022-09-03T17:30:35;20.80;99.90
9049;DHT22;4559;47.252;9.592;2022-09-03T17:41:58;20.40;99.90
9049;DHT22;4559;47.252;9.592;2022-09-03T17:49:55;20.20;99.90
9049;DHT22;4559;47.252;9.592;2022-09-03T17:52:42;20.10;99.90
9049;DHT22;4559;47.252;9.592;2022-09-03T17:57:51;20.00;99.90
9049;DHT22;4559;47.252;9.592;2022-09-03T18:00:24;20.00;99.90
9049;DHT22;4559;47.252;9.592;2022-09-03T18:11:11;19.80;99.90
9049;DHT22;4559;47.252;9.592;2022-09-03T18:16:31;19.70;99.90
9049;DHT22;4559;47.252;9.592;2022-09-03T18:19:02;19.60;99.90
9049;DHT22;4559;47.252;9.592;2022-09-03T18:21:35;19.60;99.90
9049;DHT22;4559;47.252;9.592;2022-09-03T18:24:44;19.50;99.90
9049;DHT22;4559;47.252;9.592;2022-09-03T18:27:37;19.50;99.90
9049;DHT22;4559;47.252;9.592;2022-09-03T18:30:22;19.40;99.90
9049;DHT22;4559;47.252;9.592;2022-09-03T18:33:06;19.30;99.90
9049;DHT22;4559;47.252;9.592;2022-09-03T18:35:50;19.30;99.90
9049;DHT22;4559;47.252;9.592;2022-09-03T18:38:37;19.30;99.90
9049;DHT22;4559;47.252;9.592;2022-09-03T18:45:06;19.20;99.90
9049;DHT22;4559;47.252;9.592;2022-09-03T18:48:14;19.20;99.90
9049;DHT22;4559;47.252;9.592;2022-09-03T18:54:26;19.10;99.90
9049;DHT22;4559;47.252;9.592;2022-09-03T18:57:25;19.10;99.90
9049;DHT22;4559;47.252;9.592;2022-09-03T19:00:14;19.00;99.90
9049;DHT22;4559;47.252;9.592;2022-09-03T19:15:28;19.00;99.90
9049;DHT22;4559;47.252;9.592;2022-09-03T19:21:47;19.00;99.90
9049;DHT22;4559;47.252;9.592;2022-09-03T19:24:32;19.00;99.90
9049;DHT22;4559;47.252;9.592;2022-09-03T19:27:34;19.00;99.90
9049;DHT22;4559;47.252;9.592;2022-09-03T19:30:27;19.00;99.90
9049;DHT22;4559;47.252;9.592;2022-09-03T19:36:19;19.00;99.90
9049;DHT22;4559;47.252;9.592;2022-09-03T19:45:14;18.90;99.90
9049;DHT22;4559;47.252;9.592;2022-09-03T19:51:31;18.80;99.90
9049;DHT22;4559;47.252;9.592;2022-09-03T19:54:21;18.80;99.90
9049;DHT22;4559;47.252;9.592;2022-09-03T19:57:07;18.70;99.90
9049;DHT22;4559;47.252;9.592;2022-09-03T19:59:54;18.70;99.90
9049;DHT22;4559;47.252;9.592;2022-09-03T20:02:39;18.40;99.90
9049;DHT22;4559;47.252;9.592;2022-09-03T20:05:25;18.40;99.90
9049;DHT22;4559;47.252;9.592;2022-09-03T20:08:12;18.30;99.90
9049;DHT22;4559;47.252;9.592;2022-09-03T20:10:58;18.30;99.90
9049;DHT22;4559;47.252;9.592;2022-09-03T20:13:25;18.20;99.90
9049;DHT22;4559;47.252;9.592;2022-09-03T20:16:08;18.20;99.90
9049;DHT22;4559;47.252;9.592;2022-09-03T20:18:52;18.20;99.90
9049;DHT22;4559;47.252;9.592;2022-09-03T20:21:24;18.10;99.90
9049;DHT22;4559;47.252;9.592;2022-09-03T20:30:06;18.10;99.90
9049;DHT22;4559;47.252;9.592;2022-09-03T20:49:37;17.80;99.90
9049;DHT22;4559;47.252;9.592;2022-09-03T20:52:18;17.70;99.90
9049;DHT22;4559;47.252;9.592;2022-09-03T20:55:07;17.70;99.90
9049;DHT22;4559;47.252;9.592;2022-09-03T21:00:16;17.70;99.90
9049;DHT22;4559;47.252;9.592;2022-09-03T21:19:21;17.30;99.90
9049;DHT22;4559;47.252;9.592;2022-09-03T21:21:58;17.40;99.90
9049;DHT22;4559;47.252;9.592;2022-09-03T21:27:20;17.40;99.90
9049;DHT22;4559;47.252;9.592;2022-09-03T21:30:05;17.30;99.90
9049;DHT22;4559;47.252;9.592;2022-09-03T21:33:08;17.30;99.90
9049;DHT22;4559;47.252;9.592;2022-09-03T21:35:41;17.30;99.90
9049;DHT22;4559;47.252;9.592;2022-09-03T21:38:22;17.30;99.90
9049;DHT22;4559;47.252;9.592;2022-09-03T21:41:20;17.20;99.90
9049;DHT22;4559;47.252;9.592;2022-09-03T21:43:56;17.20;99.90
9049;DHT22;4559;47.252;9.592;2022-09-03T21:46:56;17.20;99.90
9049;DHT22;4559;47.252;9.592;2022-09-03T21:49:30;17.10;99.90
9049;DHT22;4559;47.252;9.592;2022-09-03T21:52:02;17.00;99.90
9049;DHT22;4559;47.252;9.592;2022-09-03T21:54:31;17.00;99.90
9049;DHT22;4559;47.252;9.592;2022-09-03T21:57:18;17.00;99.90
9049;DHT22;4559;47.252;9.592;2022-09-03T21:59:55;17.00;99.90
9049;DHT22;4559;47.252;9.592;2022-09-03T22:04:53;17.00;99.90
9049;DHT22;4559;47.252;9.592;2022-09-03T22:07:37;17.00;99.90
9049;DHT22;4559;47.252;9.592;2022-09-03T22:15:49;17.00;99.90
9049;DHT22;4559;47.252;9.592;2022-09-03T22:18:36;17.00;99.90
9049;DHT22;4559;47.252;9.592;2022-09-03T22:29:52;16.80;99.90
9049;DHT22;4559;47.252;9.592;2022-09-03T22:32:34;16.80;99.90
9049;DHT22;4559;47.252;9.592;2022-09-03T22:40:48;16.70;99.90
9049;DHT22;4559;47.252;9.592;2022-09-03T22:43:33;16.60;99.90
9049;DHT22;4559;47.252;9.592;2022-09-03T22:46:14;16.70;99.90
9049;DHT22;4559;47.252;9.592;2022-09-03T22:51:18;16.60;99.90
9049;DHT22;4559;47.252;9.592;2022-09-03T22:56:37;16.50;99.90
9049;DHT22;4559;47.252;9.592;2022-09-03T23:01:48;16.50;99.90
9049;DHT22;4559;47.252;9.592;2022-09-03T23:04:30;16.50;99.90
9049;DHT22;4559;47.252;9.592;2022-09-03T23:07:18;16.50;99.90
9049;DHT22;4559;47.252;9.592;2022-09-03T23:09:53;16.50;99.90
9049;DHT22;4559;47.252;9.592;2022-09-03T23:12:29;16.40;99.90
9049;DHT22;4559;47.252;9.592;2022-09-03T23:14:57;16.40;99.90